sensor_id;sensor_type;location;lat;lon;timestamp;P1;durP1;ratioP1;P2;durP2;ratioP2
28796;SDS011;24974;54.444;18.560;2022-09-20T05:10:25;5.50;;;2.75;;
28796;SDS011;24974;54.444;18.560;2022-09-20T05:13:14;5.30;;;2.85;;
28796;SDS011;24974;54.444;18.560;2022-09-20T05:28:30;5.20;;;2.65;;
28796;SDS011;24974;54.444;18.560;2022-09-20T05:31:14;2.80;;;2.13;;
28796;SDS011;24974;54.444;18.560;2022-09-20T05:33:51;2.83;;;2.15;;
28796;SDS011;24974;54.444;18.560;2022-09-20T05:51:30;4.15;;;2.80;;
28796;SDS011;24974;54.444;18.560;2022-09-20T06:00:13;4.97;;;2.22;;
28796;SDS011;24974;54.444;18.560;2022-09-20T06:02:53;3.78;;;2.67;;
28796;SDS011;24974;54.444;18.560;2022-09-20T06:11:58;2.40;;;2.20;;
28796;SDS011;24974;54.444;18.560;2022-09-20T06:17:32;9.13;;;2.47;;
28796;SDS011;24974;54.444;18.560;2022-09-20T06:22:58;4.18;;;2.13;;
28796;SDS011;24974;54.444;18.560;2022-09-20T06:25:33;4.85;;;2.33;;
28796;SDS011;24974;54.444;18.560;2022-09-20T06:28:13;4.82;;;2.30;;
28796;SDS011;24974;54.444;18.560;2022-09-20T06:30:49;4.07;;;2.10;;
28796;SDS011;24974;54.444;18.560;2022-09-20T06:33:24;3.72;;;1.92;;
28796;SDS011;24974;54.444;18.560;2022-09-20T06:36:11;3.55;;;2.20;;
28796;SDS011;24974;54.444;18.560;2022-09-20T06:42:30;2.58;;;2.20;;
28796;SDS011;24974;54.444;18.560;2022-09-20T06:45:01;5.25;;;2.58;;
28796;SDS011;24974;54.444;18.560;2022-09-20T06:47:32;5.13;;;1.92;;
28796;SDS011;24974;54.444;18.560;2022-09-20T06:50:03;5.18;;;2.53;;
28796;SDS011;24974;54.444;18.560;2022-09-20T06:52:35;4.40;;;2.50;;
28796;SDS011;24974;54.444;18.560;2022-09-20T06:55:09;3.78;;;2.38;;
28796;SDS011;24974;54.444;18.560;2022-09-20T06:57:52;4.25;;;2.10;;
28796;SDS011;24974;54.444;18.560;2022-09-20T07:00:23;4.15;;;2.08;;
28796;SDS011;24974;54.444;18.560;2022-09-20T07:02:54;3.08;;;1.98;;
28796;SDS011;24974;54.444;18.560;2022-09-20T07:05:26;6.80;;;1.92;;
28796;SDS011;24974;54.444;18.560;2022-09-20T07:07:57;3.70;;;1.80;;
28796;SDS011;24974;54.444;18.560;2022-09-20T07:10:28;3.22;;;2.13;;
28796;SDS011;24974;54.444;18.560;2022-09-20T07:13:00;2.10;;;1.60;;
28796;SDS011;24974;54.444;18.560;2022-09-20T07:15:32;2.03;;;1.60;;
28796;SDS011;24974;54.444;18.560;2022-09-20T07:18:04;1.95;;;1.85;;
28796;SDS011;24974;54.444;18.560;2022-09-20T07:20:35;3.00;;;1.58;;
28796;SDS011;24974;54.444;18.560;2022-09-20T07:23:06;2.25;;;1.40;;
28796;SDS011;24974;54.444;18.560;2022-09-20T07:25:37;2.35;;;1.50;;
28796;SDS011;24974;54.444;18.560;2022-09-20T07:28:08;2.35;;;1.10;;
28796;SDS011;24974;54.444;18.560;2022-09-20T07:30:39;1.58;;;1.10;;
28796;SDS011;24974;54.444;18.560;2022-09-20T07:33:10;1.20;;;1.10;;
28796;SDS011;24974;54.444;18.560;2022-09-20T07:35:47;1.10;;;1.00;;
28796;SDS011;24974;54.444;18.560;2022-09-20T07:38:19;1.35;;;1.10;;
28796;SDS011;24974;54.444;18.560;2022-09-20T07:40:54;2.15;;;1.05;;
28796;SDS011;24974;54.444;18.560;2022-09-20T07:43:27;1.33;;;1.23;;
28796;SDS011;24974;54.444;18.560;2022-09-20T07:45:59;1.30;;;1.20;;
28796;SDS011;24974;54.444;18.560;2022-09-20T07:48:30;1.35;;;1.17;;
28796;SDS011;24974;54.444;18.560;2022-09-20T07:51:04;1.50;;;1.20;;
28796;SDS011;24974;54.444;18.560;2022-09-20T07:53:39;1.83;;;1.50;;
28796;SDS011;24974;54.444;18.560;2022-09-20T07:56:11;1.50;;;1.40;;
28796;SDS011;24974;54.444;18.560;2022-09-20T07:58:44;4.05;;;1.50;;
28796;SDS011;24974;54.444;18.560;2022-09-20T08:01:15;3.30;;;1.55;;
28796;SDS011;24974;54.444;18.560;2022-09-20T08:03:46;2.30;;;1.67;;
28796;SDS011;24974;54.444;18.560;2022-09-20T08:06:16;2.85;;;1.77;;
28796;SDS011;24974;54.444;18.560;2022-09-20T08:08:48;1.45;;;1.35;;
28796;SDS011;24974;54.444;18.560;2022-09-20T08:11:21;2.25;;;1.40;;
28796;SDS011;24974;54.444;18.560;2022-09-20T08:13:55;2.10;;;1.50;;
28796;SDS011;24974;54.444;18.560;2022-09-20T08:16:29;2.00;;;1.50;;
28796;SDS011;24974;54.444;18.560;2022-09-20T08:19:01;3.47;;;1.55;;
28796;SDS011;24974;54.444;18.560;2022-09-20T08:21:33;2.58;;;1.38;;
28796;SDS011;24974;54.444;18.560;2022-09-20T08:24:05;1.85;;;1.75;;
28796;SDS011;24974;54.444;18.560;2022-09-20T08:26:36;2.63;;;1.55;;
28796;SDS011;24974;54.444;18.560;2022-09-20T08:29:07;3.83;;;1.50;;
28796;SDS011;24974;54.444;18.560;2022-09-20T08:31:38;5.93;;;1.55;;
28796;SDS011;24974;54.444;18.560;2022-09-20T08:34:11;3.00;;;1.00;;
28796;SDS011;24974;54.444;18.560;2022-09-20T08:36:44;3.78;;;1.27;;
28796;SDS011;24974;54.444;18.560;2022-09-20T08:39:22;1.63;;;0.95;;
28796;SDS011;24974;54.444;18.560;2022-09-20T08:42:27;1.70;;;1.17;;
28796;SDS011;24974;54.444;18.560;2022-09-20T08:44:58;2.30;;;1.10;;
28796;SDS011;24974;54.444;18.560;2022-09-20T08:47:35;3.20;;;1.45;;
28796;SDS011;24974;54.444;18.560;2022-09-20T08:50:12;6.45;;;1.20;;
28796;SDS011;24974;54.444;18.560;2022-09-20T08:52:47;2.33;;;1.38;;
28796;SDS011;24974;54.444;18.560;2022-09-20T08:55:21;2.65;;;1.50;;
28796;SDS011;24974;54.444;18.560;2022-09-20T08:57:55;1.60;;;1.20;;
28796;SDS011;24974;54.444;18.560;2022-09-20T09:00:29;1.85;;;1.45;;
28796;SDS011;24974;54.444;18.560;2022-09-20T09:03:09;4.53;;;1.70;;
28796;SDS011;24974;54.444;18.560;2022-09-20T09:05:45;4.57;;;1.38;;
28796;SDS011;24974;54.444;18.560;2022-09-20T09:08:28;3.63;;;1.42;;
28796;SDS011;24974;54.444;18.560;2022-09-20T09:11:15;3.50;;;1.50;;
28796;SDS011;24974;54.444;18.560;2022-09-20T09:17:01;4.97;;;1.25;;
28796;SDS011;24974;54.444;18.560;2022-09-20T09:19:41;2.15;;;1.13;;
28796;SDS011;24974;54.444;18.560;2022-09-20T09:22:19;3.28;;;1.35;;
28796;SDS011;24974;54.444;18.560;2022-09-20T09:30:32;3.17;;;1.17;;
28796;SDS011;24974;54.444;18.560;2022-09-20T09:38:36;1.52;;;1.10;;
28796;SDS011;24974;54.444;18.560;2022-09-20T09:41:23;3.67;;;1.00;;
28796;SDS011;24974;54.444;18.560;2022-09-20T09:44:03;2.35;;;1.10;;
28796;SDS011;24974;54.444;18.560;2022-09-20T09:46:39;2.88;;;1.08;;
28796;SDS011;24974;54.444;18.560;2022-09-20T09:49:14;2.10;;;1.13;;
28796;SDS011;24974;54.444;18.560;2022-09-20T10:00:09;2.00;;;1.20;;
28796;SDS011;24974;54.444;18.560;2022-09-20T10:14:43;2.63;;;1.10;;
28796;SDS011;24974;54.444;18.560;2022-09-20T10:25:57;2.70;;;1.23;;
28796;SDS011;24974;54.444;18.560;2022-09-20T10:34:44;3.83;;;2.33;;
28796;SDS011;24974;54.444;18.560;2022-09-20T10:40:32;3.47;;;1.90;;
28796;SDS011;24974;54.444;18.560;2022-09-20T10:48:47;1.98;;;1.77;;
28796;SDS011;24974;54.444;18.560;2022-09-20T10:56:52;2.25;;;1.30;;
28796;SDS011;24974;54.444;18.560;2022-09-20T11:02:40;4.13;;;2.03;;
28796;SDS011;24974;54.444;18.560;2022-09-20T11:08:27;4.78;;;1.50;;
28796;SDS011;24974;54.444;18.560;2022-09-20T11:11:07;2.57;;;1.70;;
28796;SDS011;24974;54.444;18.560;2022-09-20T11:13:53;4.38;;;2.10;;
28796;SDS011;24974;54.444;18.560;2022-09-20T11:21:59;3.60;;;1.90;;
28796;SDS011;24974;54.444;18.560;2022-09-20T11:30:05;6.78;;;1.90;;
28796;SDS011;24974;54.444;18.560;2022-09-20T11:32:59;6.70;;;4.07;;
28796;SDS011;24974;54.444;18.560;2022-09-20T11:36:00;5.53;;;2.15;;
28796;SDS011;24974;54.444;18.560;2022-09-20T11:38:37;3.40;;;2.10;;
28796;SDS011;24974;54.444;18.560;2022-09-20T11:41:29;6.63;;;2.50;;
28796;SDS011;24974;54.444;18.560;2022-09-20T11:44:09;3.95;;;2.30;;
28796;SDS011;24974;54.444;18.560;2022-09-20T11:49:29;3.42;;;2.63;;
28796;SDS011;24974;54.444;18.560;2022-09-20T11:58:08;3.10;;;2.45;;
28796;SDS011;24974;54.444;18.560;2022-09-20T12:00:42;7.22;;;2.53;;
28796;SDS011;24974;54.444;18.560;2022-09-20T12:06:20;2.63;;;2.42;;
28796;SDS011;24974;54.444;18.560;2022-09-20T12:09:45;5.15;;;3.00;;
28796;SDS011;24974;54.444;18.560;2022-09-20T12:28:57;12.32;;;3.78;;
28796;SDS011;24974;54.444;18.560;2022-09-20T12:37:15;6.70;;;3.50;;
28796;SDS011;24974;54.444;18.560;2022-09-20T12:39:39;5.45;;;3.70;;
28796;SDS011;24974;54.444;18.560;2022-09-20T12:42:28;5.22;;;3.30;;
28796;SDS011;24974;54.444;18.560;2022-09-20T12:45:14;6.88;;;3.85;;
28796;SDS011;24974;54.444;18.560;2022-09-20T12:47:51;6.43;;;3.30;;
28796;SDS011;24974;54.444;18.560;2022-09-20T12:50:24;4.20;;;3.05;;
28796;SDS011;24974;54.444;18.560;2022-09-20T12:53:13;2.10;;;1.77;;
28796;SDS011;24974;54.444;18.560;2022-09-20T12:58:25;2.75;;;1.70;;
28796;SDS011;24974;54.444;18.560;2022-09-20T13:03:34;3.90;;;2.00;;
28796;SDS011;24974;54.444;18.560;2022-09-20T13:11:54;3.28;;;2.30;;
28796;SDS011;24974;54.444;18.560;2022-09-20T13:14:31;4.57;;;2.80;;
28796;SDS011;24974;54.444;18.560;2022-09-20T13:20:00;3.55;;;1.83;;
28796;SDS011;24974;54.444;18.560;2022-09-20T13:22:35;4.43;;;1.40;;
28796;SDS011;24974;54.444;18.560;2022-09-20T13:25:13;2.60;;;1.40;;
28796;SDS011;24974;54.444;18.560;2022-09-20T13:30:24;1.38;;;1.20;;
28796;SDS011;24974;54.444;18.560;2022-09-20T13:32:57;1.80;;;1.20;;
28796;SDS011;24974;54.444;18.560;2022-09-20T13:35:46;2.83;;;1.23;;
28796;SDS011;24974;54.444;18.560;2022-09-20T13:38:26;2.53;;;1.25;;
28796;SDS011;24974;54.444;18.560;2022-09-20T13:41:02;6.57;;;1.55;;
28796;SDS011;24974;54.444;18.560;2022-09-20T13:43:41;3.65;;;1.48;;
28796;SDS011;24974;54.444;18.560;2022-09-20T13:48:57;4.63;;;1.90;;
28796;SDS011;24974;54.444;18.560;2022-09-20T13:51:42;5.00;;;2.10;;
28796;SDS011;24974;54.444;18.560;2022-09-20T13:59:41;6.03;;;2.95;;
28796;SDS011;24974;54.444;18.560;2022-09-20T14:02:23;8.55;;;2.75;;
28796;SDS011;24974;54.444;18.560;2022-09-20T14:05:00;6.65;;;2.13;;
28796;SDS011;24974;54.444;18.560;2022-09-20T14:07:33;3.92;;;2.20;;
28796;SDS011;24974;54.444;18.560;2022-09-20T14:10:22;6.03;;;2.80;;
28796;SDS011;24974;54.444;18.560;2022-09-20T14:13:06;7.68;;;3.30;;
28796;SDS011;24974;54.444;18.560;2022-09-20T14:15:42;5.70;;;3.20;;
28796;SDS011;24974;54.444;18.560;2022-09-20T14:18:16;7.70;;;3.03;;
28796;SDS011;24974;54.444;18.560;2022-09-20T14:20:49;5.53;;;2.97;;
28796;SDS011;24974;54.444;18.560;2022-09-20T14:23:21;5.47;;;2.90;;
28796;SDS011;24974;54.444;18.560;2022-09-20T14:26:07;4.43;;;3.22;;
28796;SDS011;24974;54.444;18.560;2022-09-20T14:28:55;5.57;;;3.60;;
28796;SDS011;24974;54.444;18.560;2022-09-20T14:31:46;6.10;;;3.10;;
28796;SDS011;24974;54.444;18.560;2022-09-20T14:34:17;6.03;;;3.78;;
28796;SDS011;24974;54.444;18.560;2022-09-20T14:36:48;3.85;;;3.10;;
28796;SDS011;24974;54.444;18.560;2022-09-20T14:39:20;4.90;;;3.58;;
28796;SDS011;24974;54.444;18.560;2022-09-20T14:41:51;5.82;;;3.40;;
28796;SDS011;24974;54.444;18.560;2022-09-20T14:44:23;4.78;;;3.08;;
28796;SDS011;24974;54.444;18.560;2022-09-20T14:47:12;6.03;;;3.40;;
28796;SDS011;24974;54.444;18.560;2022-09-20T14:49:44;5.68;;;3.47;;
28796;SDS011;24974;54.444;18.560;2022-09-20T14:57:46;3.95;;;3.40;;
28796;SDS011;24974;54.444;18.560;2022-09-20T15:00:17;8.13;;;3.92;;
28796;SDS011;24974;54.444;18.560;2022-09-20T15:02:48;5.50;;;3.83;;
28796;SDS011;24974;54.444;18.560;2022-09-20T15:05:20;6.78;;;3.80;;
28796;SDS011;24974;54.444;18.560;2022-09-20T15:07:59;7.57;;;3.78;;
28796;SDS011;24974;54.444;18.560;2022-09-20T15:10:30;6.82;;;4.13;;
28796;SDS011;24974;54.444;18.560;2022-09-20T15:13:01;4.90;;;3.90;;
28796;SDS011;24974;54.444;18.560;2022-09-20T15:15:32;5.32;;;4.70;;
28796;SDS011;24974;54.444;18.560;2022-09-20T15:18:04;5.35;;;4.30;;
28796;SDS011;24974;54.444;18.560;2022-09-20T15:20:42;7.15;;;4.57;;
28796;SDS011;24974;54.444;18.560;2022-09-20T15:23:13;9.52;;;4.50;;
28796;SDS011;24974;54.444;18.560;2022-09-20T15:25:44;6.90;;;4.40;;
28796;SDS011;24974;54.444;18.560;2022-09-20T15:28:18;6.65;;;4.20;;
28796;SDS011;24974;54.444;18.560;2022-09-20T15:30:50;5.88;;;4.50;;
28796;SDS011;24974;54.444;18.560;2022-09-20T15:33:21;8.52;;;4.40;;
28796;SDS011;24974;54.444;18.560;2022-09-20T15:35:52;7.90;;;5.10;;
28796;SDS011;24974;54.444;18.560;2022-09-20T15:38:23;6.38;;;5.13;;
28796;SDS011;24974;54.444;18.560;2022-09-20T15:40:58;7.97;;;4.35;;
28796;SDS011;24974;54.444;18.560;2022-09-20T15:43:30;4.85;;;4.05;;
28796;SDS011;24974;54.444;18.560;2022-09-20T15:46:23;6.63;;;4.65;;
28796;SDS011;24974;54.444;18.560;2022-09-20T15:48:54;8.82;;;5.03;;
28796;SDS011;24974;54.444;18.560;2022-09-20T15:51:29;9.63;;;4.32;;
28796;SDS011;24974;54.444;18.560;2022-09-20T15:54:01;8.30;;;4.55;;
28796;SDS011;24974;54.444;18.560;2022-09-20T15:56:35;7.18;;;4.47;;
28796;SDS011;24974;54.444;18.560;2022-09-20T15:59:09;5.90;;;4.22;;
28796;SDS011;24974;54.444;18.560;2022-09-20T16:01:43;7.03;;;4.68;;
28796;SDS011;24974;54.444;18.560;2022-09-20T16:04:15;8.43;;;4.15;;
28796;SDS011;24974;54.444;18.560;2022-09-20T16:06:50;4.57;;;4.00;;
28796;SDS011;24974;54.444;18.560;2022-09-20T16:09:22;9.30;;;3.83;;
28796;SDS011;24974;54.444;18.560;2022-09-20T16:11:52;7.35;;;4.63;;
28796;SDS011;24974;54.444;18.560;2022-09-20T16:14:30;6.57;;;5.07;;
28796;SDS011;24974;54.444;18.560;2022-09-20T16:17:00;5.45;;;3.85;;
28796;SDS011;24974;54.444;18.560;2022-09-20T16:19:31;6.85;;;4.57;;
28796;SDS011;24974;54.444;18.560;2022-09-20T16:22:02;5.63;;;4.18;;
28796;SDS011;24974;54.444;18.560;2022-09-20T16:24:34;7.10;;;4.65;;
28796;SDS011;24974;54.444;18.560;2022-09-20T16:27:06;8.40;;;5.43;;
28796;SDS011;24974;54.444;18.560;2022-09-20T16:29:37;8.10;;;5.05;;
28796;SDS011;24974;54.444;18.560;2022-09-20T16:32:08;8.38;;;5.28;;
28796;SDS011;24974;54.444;18.560;2022-09-20T16:34:39;9.50;;;5.30;;
28796;SDS011;24974;54.444;18.560;2022-09-20T16:37:11;10.18;;;5.30;;
28796;SDS011;24974;54.444;18.560;2022-09-20T16:39:46;10.55;;;5.35;;
28796;SDS011;24974;54.444;18.560;2022-09-20T16:42:16;9.27;;;5.65;;
28796;SDS011;24974;54.444;18.560;2022-09-20T16:44:47;11.35;;;5.75;;
28796;SDS011;24974;54.444;18.560;2022-09-20T16:47:18;9.13;;;6.32;;
28796;SDS011;24974;54.444;18.560;2022-09-20T16:49:52;9.80;;;6.20;;
28796;SDS011;24974;54.444;18.560;2022-09-20T16:52:23;9.80;;;5.68;;
28796;SDS011;24974;54.444;18.560;2022-09-20T16:54:55;10.00;;;6.35;;
28796;SDS011;24974;54.444;18.560;2022-09-20T16:57:26;10.20;;;6.45;;
28796;SDS011;24974;54.444;18.560;2022-09-20T16:59:58;8.40;;;5.85;;
28796;SDS011;24974;54.444;18.560;2022-09-20T17:02:29;9.18;;;5.93;;
28796;SDS011;24974;54.444;18.560;2022-09-20T17:05:00;8.32;;;5.88;;
28796;SDS011;24974;54.444;18.560;2022-09-20T17:07:31;13.23;;;5.90;;
28796;SDS011;24974;54.444;18.560;2022-09-20T17:10:03;9.05;;;6.00;;
28796;SDS011;24974;54.444;18.560;2022-09-20T17:12:34;10.13;;;5.85;;
28796;SDS011;24974;54.444;18.560;2022-09-20T17:15:10;10.70;;;6.47;;
28796;SDS011;24974;54.444;18.560;2022-09-20T17:17:43;10.55;;;6.22;;
28796;SDS011;24974;54.444;18.560;2022-09-20T17:20:14;10.65;;;6.28;;
28796;SDS011;24974;54.444;18.560;2022-09-20T17:22:45;7.78;;;5.85;;
28796;SDS011;24974;54.444;18.560;2022-09-20T17:25:16;9.85;;;6.68;;
28796;SDS011;24974;54.444;18.560;2022-09-20T17:27:47;9.48;;;5.90;;
28796;SDS011;24974;54.444;18.560;2022-09-20T17:30:20;6.75;;;5.47;;
28796;SDS011;24974;54.444;18.560;2022-09-20T17:32:51;11.70;;;6.32;;
28796;SDS011;24974;54.444;18.560;2022-09-20T17:35:22;10.65;;;5.70;;
28796;SDS011;24974;54.444;18.560;2022-09-20T17:37:52;9.80;;;6.10;;
28796;SDS011;24974;54.444;18.560;2022-09-20T17:40:23;7.30;;;5.40;;
28796;SDS011;24974;54.444;18.560;2022-09-20T17:42:55;8.50;;;6.47;;
28796;SDS011;24974;54.444;18.560;2022-09-20T17:45:26;6.40;;;5.50;;
28796;SDS011;24974;54.444;18.560;2022-09-20T17:47:56;13.27;;;6.75;;
28796;SDS011;24974;54.444;18.560;2022-09-20T17:50:27;10.05;;;6.85;;
28796;SDS011;24974;54.444;18.560;2022-09-20T17:53:00;9.45;;;6.53;;
28796;SDS011;24974;54.444;18.560;2022-09-20T17:55:31;10.30;;;6.10;;
28796;SDS011;24974;54.444;18.560;2022-09-20T17:58:03;8.60;;;6.15;;
28796;SDS011;24974;54.444;18.560;2022-09-20T18:00:34;9.50;;;5.63;;
28796;SDS011;24974;54.444;18.560;2022-09-20T18:03:06;6.60;;;4.65;;
28796;SDS011;24974;54.444;18.560;2022-09-20T18:05:37;13.55;;;5.22;;
28796;SDS011;24974;54.444;18.560;2022-09-20T18:08:08;6.25;;;5.20;;
28796;SDS011;24974;54.444;18.560;2022-09-20T18:10:39;10.18;;;6.10;;
28796;SDS011;24974;54.444;18.560;2022-09-20T18:13:11;9.18;;;5.82;;
28796;SDS011;24974;54.444;18.560;2022-09-20T18:15:42;9.40;;;5.25;;
28796;SDS011;24974;54.444;18.560;2022-09-20T18:18:14;9.25;;;5.22;;
28796;SDS011;24974;54.444;18.560;2022-09-20T18:20:46;7.68;;;5.72;;
28796;SDS011;24974;54.444;18.560;2022-09-20T18:23:17;8.23;;;5.43;;
28796;SDS011;24974;54.444;18.560;2022-09-20T18:25:48;7.85;;;5.22;;
28796;SDS011;24974;54.444;18.560;2022-09-20T18:28:37;8.27;;;5.30;;
28796;SDS011;24974;54.444;18.560;2022-09-20T18:31:07;9.85;;;5.13;;
28796;SDS011;24974;54.444;18.560;2022-09-20T18:33:39;10.65;;;5.10;;
28796;SDS011;24974;54.444;18.560;2022-09-20T18:36:12;7.95;;;5.60;;
28796;SDS011;24974;54.444;18.560;2022-09-20T18:38:44;9.13;;;6.78;;
28796;SDS011;24974;54.444;18.560;2022-09-20T18:41:15;12.45;;;5.82;;
28796;SDS011;24974;54.444;18.560;2022-09-20T18:43:47;9.30;;;5.70;;
28796;SDS011;24974;54.444;18.560;2022-09-20T18:46:18;9.45;;;5.50;;
28796;SDS011;24974;54.444;18.560;2022-09-20T18:48:53;11.30;;;6.53;;
28796;SDS011;24974;54.444;18.560;2022-09-20T18:51:25;10.05;;;6.25;;
28796;SDS011;24974;54.444;18.560;2022-09-20T18:53:59;6.88;;;6.18;;
28796;SDS011;24974;54.444;18.560;2022-09-20T18:56:33;10.25;;;6.50;;
28796;SDS011;24974;54.444;18.560;2022-09-20T18:59:26;8.60;;;6.28;;
28796;SDS011;24974;54.444;18.560;2022-09-20T19:05:24;7.30;;;5.50;;
28796;SDS011;24974;54.444;18.560;2022-09-20T19:08:07;10.25;;;5.38;;
28796;SDS011;24974;54.444;18.560;2022-09-20T19:10:52;10.25;;;5.57;;
28796;SDS011;24974;54.444;18.560;2022-09-20T19:16:21;9.82;;;5.53;;
28796;SDS011;24974;54.444;18.560;2022-09-20T19:25:26;9.43;;;4.72;;
28796;SDS011;24974;54.444;18.560;2022-09-20T19:28:17;7.38;;;5.18;;
28796;SDS011;24974;54.444;18.560;2022-09-20T19:30:48;11.13;;;5.47;;
28796;SDS011;24974;54.444;18.560;2022-09-20T19:33:20;14.63;;;5.13;;
28796;SDS011;24974;54.444;18.560;2022-09-20T19:35:51;13.20;;;7.15;;
28796;SDS011;24974;54.444;18.560;2022-09-20T19:41:02;7.45;;;4.47;;
28796;SDS011;24974;54.444;18.560;2022-09-20T19:49:50;19.15;;;11.60;;
28796;SDS011;24974;54.444;18.560;2022-09-20T19:52:23;9.13;;;5.03;;
28796;SDS011;24974;54.444;18.560;2022-09-20T19:54:54;9.75;;;4.28;;
28796;SDS011;24974;54.444;18.560;2022-09-20T19:57:28;5.90;;;4.05;;
28796;SDS011;24974;54.444;18.560;2022-09-20T20:00:10;10.70;;;4.93;;
28796;SDS011;24974;54.444;18.560;2022-09-20T20:02:47;7.45;;;4.85;;
28796;SDS011;24974;54.444;18.560;2022-09-20T20:05:19;8.50;;;4.32;;
